sensor_id;sensor_type;location;lat;lon;timestamp;temperature;humidity
75824;DHT22;64457;51.976;9.834;2022-12-18T00:01:23;-4.70;93.60
75824;DHT22;64457;51.976;9.834;2022-12-18T00:03:52;-4.70;93.80
75824;DHT22;64457;51.976;9.834;2022-12-18T00:06:20;-4.60;93.90
75824;DHT22;64457;51.976;9.834;2022-12-18T00:08:48;-4.60;93.80
75824;DHT22;64457;51.976;9.834;2022-12-18T00:11:18;-4.60;93.70
75824;DHT22;64457;51.976;9.834;2022-12-18T00:13:48;-4.50;93.70
75824;DHT22;64457;51.976;9.834;2022-12-18T00:16:17;-4.50;93.60
75824;DHT22;64457;51.976;9.834;2022-12-18T00:18:48;-4.50;93.70
75824;DHT22;64457;51.976;9.834;2022-12-18T00:21:17;-4.50;93.70
75824;DHT22;64457;51.976;9.834;2022-12-18T00:23:45;-4.60;93.50
75824;DHT22;64457;51.976;9.834;2022-12-18T00:26:16;-4.50;93.50
75824;DHT22;64457;51.976;9.834;2022-12-18T00:28:45;-4.50;93.50
75824;DHT22;64457;51.976;9.834;2022-12-18T00:31:14;-4.50;93.70
75824;DHT22;64457;51.976;9.834;2022-12-18T00:33:43;-4.70;93.70
75824;DHT22;64457;51.976;9.834;2022-12-18T00:36:14;-4.90;93.60
75824;DHT22;64457;51.976;9.834;2022-12-18T00:38:43;-4.70;93.90
75824;DHT22;64457;51.976;9.834;2022-12-18T00:41:13;-4.70;93.80
75824;DHT22;64457;51.976;9.834;2022-12-18T00:44:03;-4.80;93.40
75824;DHT22;64457;51.976;9.834;2022-12-18T00:46:30;-4.70;93.60
75824;DHT22;64457;51.976;9.834;2022-12-18T00:48:57;-4.80;93.50
75824;DHT22;64457;51.976;9.834;2022-12-18T00:51:26;-4.80;93.80
75824;DHT22;64457;51.976;9.834;2022-12-18T00:53:53;-4.70;93.90
75824;DHT22;64457;51.976;9.834;2022-12-18T00:56:21;-4.80;93.90
75824;DHT22;64457;51.976;9.834;2022-12-18T00:58:49;-4.70;94.00
75824;DHT22;64457;51.976;9.834;2022-12-18T01:01:17;-4.60;94.00
75824;DHT22;64457;51.976;9.834;2022-12-18T01:03:45;-4.70;93.80
75824;DHT22;64457;51.976;9.834;2022-12-18T01:06:14;-4.90;93.50
75824;DHT22;64457;51.976;9.834;2022-12-18T01:08:43;-4.80;93.60
75824;DHT22;64457;51.976;9.834;2022-12-18T01:11:12;-4.80;93.70
75824;DHT22;64457;51.976;9.834;2022-12-18T01:13:42;-4.80;93.70
75824;DHT22;64457;51.976;9.834;2022-12-18T01:16:11;-4.70;93.70
75824;DHT22;64457;51.976;9.834;2022-12-18T01:18:39;-4.70;93.40
75824;DHT22;64457;51.976;9.834;2022-12-18T01:21:08;-4.70;93.40
75824;DHT22;64457;51.976;9.834;2022-12-18T01:23:36;-4.70;93.20
75824;DHT22;64457;51.976;9.834;2022-12-18T01:26:09;-4.70;93.30
75824;DHT22;64457;51.976;9.834;2022-12-18T01:28:38;-4.70;93.20
75824;DHT22;64457;51.976;9.834;2022-12-18T01:31:15;-4.70;93.20
75824;DHT22;64457;51.976;9.834;2022-12-18T01:33:44;-4.80;93.90
75824;DHT22;64457;51.976;9.834;2022-12-18T01:36:20;-4.80;93.30
75824;DHT22;64457;51.976;9.834;2022-12-18T01:38:50;-4.80;93.10
75824;DHT22;64457;51.976;9.834;2022-12-18T01:41:23;-4.80;93.30
75824;DHT22;64457;51.976;9.834;2022-12-18T01:43:53;-4.80;93.20
75824;DHT22;64457;51.976;9.834;2022-12-18T01:46:24;-5.00;93.20
75824;DHT22;64457;51.976;9.834;2022-12-18T01:48:55;-4.80;93.30
75824;DHT22;64457;51.976;9.834;2022-12-18T01:51:24;-4.80;93.30
75824;DHT22;64457;51.976;9.834;2022-12-18T01:53:52;-4.90;93.40
75824;DHT22;64457;51.976;9.834;2022-12-18T01:56:22;-4.80;93.40
75824;DHT22;64457;51.976;9.834;2022-12-18T01:59:01;-4.80;93.40
75824;DHT22;64457;51.976;9.834;2022-12-18T02:01:31;-4.80;93.50
75824;DHT22;64457;51.976;9.834;2022-12-18T02:04:19;-4.80;93.70
75824;DHT22;64457;51.976;9.834;2022-12-18T02:06:51;-4.70;93.60
75824;DHT22;64457;51.976;9.834;2022-12-18T02:09:24;-4.80;93.30
75824;DHT22;64457;51.976;9.834;2022-12-18T02:11:59;-4.70;93.40
75824;DHT22;64457;51.976;9.834;2022-12-18T02:14:38;-4.70;93.30
75824;DHT22;64457;51.976;9.834;2022-12-18T02:17:12;-4.80;93.40
75824;DHT22;64457;51.976;9.834;2022-12-18T02:19:52;-4.80;93.00
75824;DHT22;64457;51.976;9.834;2022-12-18T02:22:31;-4.80;93.20
75824;DHT22;64457;51.976;9.834;2022-12-18T02:25:18;-5.00;93.20
75824;DHT22;64457;51.976;9.834;2022-12-18T02:27:56;-5.10;93.20
75824;DHT22;64457;51.976;9.834;2022-12-18T02:30:27;-5.20;93.20
75824;DHT22;64457;51.976;9.834;2022-12-18T02:32:57;-5.00;93.40
75824;DHT22;64457;51.976;9.834;2022-12-18T02:35:29;-5.00;93.20
75824;DHT22;64457;51.976;9.834;2022-12-18T02:37:58;-5.20;93.30
75824;DHT22;64457;51.976;9.834;2022-12-18T02:40:27;-5.20;93.40
75824;DHT22;64457;51.976;9.834;2022-12-18T02:43:02;-5.20;93.30
75824;DHT22;64457;51.976;9.834;2022-12-18T02:45:33;-5.20;93.30
75824;DHT22;64457;51.976;9.834;2022-12-18T02:48:01;-5.10;93.30
75824;DHT22;64457;51.976;9.834;2022-12-18T02:50:34;-5.10;93.20
75824;DHT22;64457;51.976;9.834;2022-12-18T02:53:10;-5.10;93.20
75824;DHT22;64457;51.976;9.834;2022-12-18T02:55:51;-5.00;93.10
75824;DHT22;64457;51.976;9.834;2022-12-18T02:58:34;-5.30;93.00
75824;DHT22;64457;51.976;9.834;2022-12-18T03:01:13;-5.20;93.60
75824;DHT22;64457;51.976;9.834;2022-12-18T03:03:46;-5.30;93.80
75824;DHT22;64457;51.976;9.834;2022-12-18T03:06:22;-5.20;94.00
75824;DHT22;64457;51.976;9.834;2022-12-18T03:08:54;-5.10;93.80
75824;DHT22;64457;51.976;9.834;2022-12-18T03:11:26;-5.00;93.90
75824;DHT22;64457;51.976;9.834;2022-12-18T03:14:16;-5.00;93.80
75824;DHT22;64457;51.976;9.834;2022-12-18T03:16:43;-5.00;93.70
75824;DHT22;64457;51.976;9.834;2022-12-18T03:19:15;-5.00;93.90
75824;DHT22;64457;51.976;9.834;2022-12-18T03:21:47;-4.90;94.40
75824;DHT22;64457;51.976;9.834;2022-12-18T03:24:17;-4.80;94.60
75824;DHT22;64457;51.976;9.834;2022-12-18T03:26:50;-4.80;94.30
75824;DHT22;64457;51.976;9.834;2022-12-18T03:29:24;-4.80;94.30
75824;DHT22;64457;51.976;9.834;2022-12-18T03:31:59;-4.70;94.30
75824;DHT22;64457;51.976;9.834;2022-12-18T03:34:32;-4.70;94.40
75824;DHT22;64457;51.976;9.834;2022-12-18T03:37:02;-4.60;94.70
75824;DHT22;64457;51.976;9.834;2022-12-18T03:39:29;-4.60;94.40
75824;DHT22;64457;51.976;9.834;2022-12-18T03:42:02;-4.70;94.20
75824;DHT22;64457;51.976;9.834;2022-12-18T03:44:39;-4.90;94.30
75824;DHT22;64457;51.976;9.834;2022-12-18T03:47:14;-4.70;95.20
75824;DHT22;64457;51.976;9.834;2022-12-18T03:49:47;-4.60;95.40
75824;DHT22;64457;51.976;9.834;2022-12-18T03:52:22;-4.50;95.90
75824;DHT22;64457;51.976;9.834;2022-12-18T03:54:54;-4.30;96.10
75824;DHT22;64457;51.976;9.834;2022-12-18T03:57:25;-4.10;95.90
75824;DHT22;64457;51.976;9.834;2022-12-18T03:59:58;-3.90;95.70
75824;DHT22;64457;51.976;9.834;2022-12-18T04:02:28;-3.80;95.50
75824;DHT22;64457;51.976;9.834;2022-12-18T04:05:00;-3.70;95.20
75824;DHT22;64457;51.976;9.834;2022-12-18T04:07:29;-3.70;94.60
75824;DHT22;64457;51.976;9.834;2022-12-18T04:09:58;-3.80;94.00
75824;DHT22;64457;51.976;9.834;2022-12-18T04:12:29;-4.00;93.70
75824;DHT22;64457;51.976;9.834;2022-12-18T04:14:58;-4.20;93.60
75824;DHT22;64457;51.976;9.834;2022-12-18T04:17:26;-4.20;93.90
75824;DHT22;64457;51.976;9.834;2022-12-18T04:19:53;-4.20;93.90
75824;DHT22;64457;51.976;9.834;2022-12-18T04:22:21;-4.50;94.10
75824;DHT22;64457;51.976;9.834;2022-12-18T04:24:48;-4.30;94.30
75824;DHT22;64457;51.976;9.834;2022-12-18T04:27:15;-4.40;94.10
75824;DHT22;64457;51.976;9.834;2022-12-18T04:29:43;-4.20;94.20
75824;DHT22;64457;51.976;9.834;2022-12-18T04:32:12;-4.10;94.00
75824;DHT22;64457;51.976;9.834;2022-12-18T04:34:39;-4.20;93.70
75824;DHT22;64457;51.976;9.834;2022-12-18T04:37:07;-4.20;93.80
75824;DHT22;64457;51.976;9.834;2022-12-18T04:39:35;-4.20;94.40
75824;DHT22;64457;51.976;9.834;2022-12-18T04:42:02;-4.30;94.30
75824;DHT22;64457;51.976;9.834;2022-12-18T04:44:30;-4.20;95.10
75824;DHT22;64457;51.976;9.834;2022-12-18T04:46:57;-4.10;95.60
75824;DHT22;64457;51.976;9.834;2022-12-18T04:49:26;-3.90;95.40
75824;DHT22;64457;51.976;9.834;2022-12-18T04:51:54;-3.70;95.10
75824;DHT22;64457;51.976;9.834;2022-12-18T04:54:21;-3.80;94.80
75824;DHT22;64457;51.976;9.834;2022-12-18T04:56:49;-3.70;94.90
75824;DHT22;64457;51.976;9.834;2022-12-18T04:59:16;-3.70;94.60
75824;DHT22;64457;51.976;9.834;2022-12-18T05:01:44;-3.60;94.60
75824;DHT22;64457;51.976;9.834;2022-12-18T05:04:11;-3.90;95.00
75824;DHT22;64457;51.976;9.834;2022-12-18T05:06:40;-4.20;95.40
75824;DHT22;64457;51.976;9.834;2022-12-18T05:09:07;-4.20;95.70
75824;DHT22;64457;51.976;9.834;2022-12-18T05:11:38;-3.90;95.50
75824;DHT22;64457;51.976;9.834;2022-12-18T05:14:05;-3.70;95.10
75824;DHT22;64457;51.976;9.834;2022-12-18T05:16:32;-3.70;94.30
75824;DHT22;64457;51.976;9.834;2022-12-18T05:19:00;-3.60;93.80
75824;DHT22;64457;51.976;9.834;2022-12-18T05:21:27;-3.70;93.30
75824;DHT22;64457;51.976;9.834;2022-12-18T05:23:57;-3.90;93.10
75824;DHT22;64457;51.976;9.834;2022-12-18T05:26:24;-4.10;93.20
75824;DHT22;64457;51.976;9.834;2022-12-18T05:28:52;-4.10;93.30
75824;DHT22;64457;51.976;9.834;2022-12-18T05:31:21;-4.20;93.30
75824;DHT22;64457;51.976;9.834;2022-12-18T05:33:49;-4.20;93.50
75824;DHT22;64457;51.976;9.834;2022-12-18T05:36:16;-4.20;93.30
75824;DHT22;64457;51.976;9.834;2022-12-18T05:38:44;-4.20;93.00
75824;DHT22;64457;51.976;9.834;2022-12-18T05:41:13;-4.20;92.90
75824;DHT22;64457;51.976;9.834;2022-12-18T05:43:40;-4.20;92.90
75824;DHT22;64457;51.976;9.834;2022-12-18T05:46:11;-4.20;92.50
75824;DHT22;64457;51.976;9.834;2022-12-18T05:48:39;-4.40;92.30
75824;DHT22;64457;51.976;9.834;2022-12-18T05:51:10;-4.50;92.50
75824;DHT22;64457;51.976;9.834;2022-12-18T05:53:38;-4.60;92.60
75824;DHT22;64457;51.976;9.834;2022-12-18T05:56:07;-4.70;92.90
75824;DHT22;64457;51.976;9.834;2022-12-18T05:58:37;-4.80;92.60
75824;DHT22;64457;51.976;9.834;2022-12-18T06:01:10;-4.80;92.70
75824;DHT22;64457;51.976;9.834;2022-12-18T06:03:39;-4.80;92.80
75824;DHT22;64457;51.976;9.834;2022-12-18T06:06:13;-4.80;92.70
75824;DHT22;64457;51.976;9.834;2022-12-18T06:08:41;-4.70;92.60
75824;DHT22;64457;51.976;9.834;2022-12-18T06:11:09;-4.90;92.80
75824;DHT22;64457;51.976;9.834;2022-12-18T06:13:37;-4.90;92.80
75824;DHT22;64457;51.976;9.834;2022-12-18T06:16:05;-4.90;92.70
75824;DHT22;64457;51.976;9.834;2022-12-18T06:18:33;-4.80;92.70
75824;DHT22;64457;51.976;9.834;2022-12-18T06:21:04;-4.80;92.80
75824;DHT22;64457;51.976;9.834;2022-12-18T06:23:32;-4.80;92.80
75824;DHT22;64457;51.976;9.834;2022-12-18T06:26:03;-4.80;92.80
75824;DHT22;64457;51.976;9.834;2022-12-18T06:28:32;-4.90;92.80
75824;DHT22;64457;51.976;9.834;2022-12-18T06:31:02;-5.00;92.90
75824;DHT22;64457;51.976;9.834;2022-12-18T06:33:31;-5.00;92.90
75824;DHT22;64457;51.976;9.834;2022-12-18T06:36:00;-4.90;92.90
75824;DHT22;64457;51.976;9.834;2022-12-18T06:38:27;-5.00;93.00
75824;DHT22;64457;51.976;9.834;2022-12-18T06:40:55;-5.00;93.20
75824;DHT22;64457;51.976;9.834;2022-12-18T06:43:22;-5.00;93.40
75824;DHT22;64457;51.976;9.834;2022-12-18T06:45:50;-5.00;93.40
75824;DHT22;64457;51.976;9.834;2022-12-18T06:48:20;-5.00;93.50
75824;DHT22;64457;51.976;9.834;2022-12-18T06:50:48;-5.10;93.70
75824;DHT22;64457;51.976;9.834;2022-12-18T06:53:15;-5.20;93.70
75824;DHT22;64457;51.976;9.834;2022-12-18T06:55:43;-5.10;94.00
75824;DHT22;64457;51.976;9.834;2022-12-18T06:58:11;-5.10;93.70
75824;DHT22;64457;51.976;9.834;2022-12-18T07:00:38;-5.00;93.70
75824;DHT22;64457;51.976;9.834;2022-12-18T07:03:06;-4.90;94.30
75824;DHT22;64457;51.976;9.834;2022-12-18T07:05:39;-4.90;94.40
75824;DHT22;64457;51.976;9.834;2022-12-18T07:08:07;-4.70;94.40
75824;DHT22;64457;51.976;9.834;2022-12-18T07:10:40;-4.80;94.40
75824;DHT22;64457;51.976;9.834;2022-12-18T07:13:09;-4.80;95.00
75824;DHT22;64457;51.976;9.834;2022-12-18T07:15:37;-4.70;95.30
75824;DHT22;64457;51.976;9.834;2022-12-18T07:18:04;-4.70;95.70
75824;DHT22;64457;51.976;9.834;2022-12-18T07:20:32;-4.60;95.30
75824;DHT22;64457;51.976;9.834;2022-12-18T07:23:03;-4.40;95.20
75824;DHT22;64457;51.976;9.834;2022-12-18T07:25:33;-4.30;94.40
75824;DHT22;64457;51.976;9.834;2022-12-18T07:28:01;-4.30;93.70
75824;DHT22;64457;51.976;9.834;2022-12-18T07:30:29;-4.20;93.30
75824;DHT22;64457;51.976;9.834;2022-12-18T07:32:56;-4.30;93.20
75824;DHT22;64457;51.976;9.834;2022-12-18T07:35:24;-4.40;93.10
75824;DHT22;64457;51.976;9.834;2022-12-18T07:37:51;-4.40;93.20
75824;DHT22;64457;51.976;9.834;2022-12-18T07:40:20;-4.30;93.20
75824;DHT22;64457;51.976;9.834;2022-12-18T07:42:48;-4.40;92.80
75824;DHT22;64457;51.976;9.834;2022-12-18T07:45:15;-4.50;92.80
75824;DHT22;64457;51.976;9.834;2022-12-18T07:47:43;-4.50;92.90
75824;DHT22;64457;51.976;9.834;2022-12-18T07:50:10;-4.50;92.90
75824;DHT22;64457;51.976;9.834;2022-12-18T07:52:39;-4.40;92.90
75824;DHT22;64457;51.976;9.834;2022-12-18T07:55:07;-4.40;92.70
75824;DHT22;64457;51.976;9.834;2022-12-18T07:57:36;-4.50;92.50
75824;DHT22;64457;51.976;9.834;2022-12-18T08:00:05;-4.50;92.50
75824;DHT22;64457;51.976;9.834;2022-12-18T08:02:33;-4.50;92.50
75824;DHT22;64457;51.976;9.834;2022-12-18T08:05:01;-4.70;92.50
75824;DHT22;64457;51.976;9.834;2022-12-18T08:07:28;-4.60;93.10
75824;DHT22;64457;51.976;9.834;2022-12-18T08:09:56;-4.50;94.10
75824;DHT22;64457;51.976;9.834;2022-12-18T08:12:23;-4.30;94.30
75824;DHT22;64457;51.976;9.834;2022-12-18T08:14:52;-4.10;94.40
75824;DHT22;64457;51.976;9.834;2022-12-18T08:17:20;-3.90;94.40
75824;DHT22;64457;51.976;9.834;2022-12-18T08:19:47;-4.00;94.40
75824;DHT22;64457;51.976;9.834;2022-12-18T08:22:14;-3.90;94.80
75824;DHT22;64457;51.976;9.834;2022-12-18T08:24:42;-3.70;94.90
75824;DHT22;64457;51.976;9.834;2022-12-18T08:27:09;-3.70;94.50
75824;DHT22;64457;51.976;9.834;2022-12-18T08:29:37;-3.60;94.50
75824;DHT22;64457;51.976;9.834;2022-12-18T08:32:06;-3.60;94.50
75824;DHT22;64457;51.976;9.834;2022-12-18T08:34:34;-3.50;94.40
75824;DHT22;64457;51.976;9.834;2022-12-18T08:37:02;-3.60;94.50
75824;DHT22;64457;51.976;9.834;2022-12-18T08:39:30;-3.60;94.40
75824;DHT22;64457;51.976;9.834;2022-12-18T08:41:57;-3.40;94.40
75824;DHT22;64457;51.976;9.834;2022-12-18T08:44:42;-3.20;94.30
75824;DHT22;64457;51.976;9.834;2022-12-18T08:47:11;-3.10;94.20
75824;DHT22;64457;51.976;9.834;2022-12-18T08:49:39;-3.10;94.00
75824;DHT22;64457;51.976;9.834;2022-12-18T08:52:06;-3.00;93.80
75824;DHT22;64457;51.976;9.834;2022-12-18T08:54:34;-2.90;93.90
75824;DHT22;64457;51.976;9.834;2022-12-18T08:57:02;-2.90;93.60
75824;DHT22;64457;51.976;9.834;2022-12-18T08:59:30;-2.90;93.60
75824;DHT22;64457;51.976;9.834;2022-12-18T09:01:57;-2.80;93.60
75824;DHT22;64457;51.976;9.834;2022-12-18T09:04:26;-2.70;93.70
75824;DHT22;64457;51.976;9.834;2022-12-18T09:06:57;-2.70;93.60
75824;DHT22;64457;51.976;9.834;2022-12-18T09:09:24;-2.80;93.50
75824;DHT22;64457;51.976;9.834;2022-12-18T09:11:52;-2.70;93.60
75824;DHT22;64457;51.976;9.834;2022-12-18T09:14:19;-2.60;93.70
75824;DHT22;64457;51.976;9.834;2022-12-18T09:16:49;-2.60;93.60
75824;DHT22;64457;51.976;9.834;2022-12-18T09:19:16;-2.70;93.60
75824;DHT22;64457;51.976;9.834;2022-12-18T09:21:45;-2.60;93.80
75824;DHT22;64457;51.976;9.834;2022-12-18T09:24:14;-2.50;93.90
75824;DHT22;64457;51.976;9.834;2022-12-18T09:26:43;-2.40;93.90
75824;DHT22;64457;51.976;9.834;2022-12-18T09:29:10;-2.60;93.90
75824;DHT22;64457;51.976;9.834;2022-12-18T09:31:38;-2.40;94.10
75824;DHT22;64457;51.976;9.834;2022-12-18T09:34:06;-2.30;94.30
75824;DHT22;64457;51.976;9.834;2022-12-18T09:36:34;-2.10;94.30
75824;DHT22;64457;51.976;9.834;2022-12-18T09:39:03;-1.90;94.20
75824;DHT22;64457;51.976;9.834;2022-12-18T09:41:41;-2.10;94.10
75824;DHT22;64457;51.976;9.834;2022-12-18T09:44:17;-2.00;94.20
75824;DHT22;64457;51.976;9.834;2022-12-18T09:46:50;-2.00;94.40
75824;DHT22;64457;51.976;9.834;2022-12-18T09:49:23;-1.70;94.50
75824;DHT22;64457;51.976;9.834;2022-12-18T09:51:55;-1.50;94.30
75824;DHT22;64457;51.976;9.834;2022-12-18T09:54:33;-1.50;94.00
75824;DHT22;64457;51.976;9.834;2022-12-18T09:57:03;-1.20;94.10
75824;DHT22;64457;51.976;9.834;2022-12-18T09:59:35;-1.20;94.10
75824;DHT22;64457;51.976;9.834;2022-12-18T10:02:15;-1.10;93.90
75824;DHT22;64457;51.976;9.834;2022-12-18T10:04:50;-0.90;94.00
75824;DHT22;64457;51.976;9.834;2022-12-18T10:07:29;-0.90;93.80
75824;DHT22;64457;51.976;9.834;2022-12-18T10:10:07;-0.70;93.90
75824;DHT22;64457;51.976;9.834;2022-12-18T10:12:46;-0.70;94.00
75824;DHT22;64457;51.976;9.834;2022-12-18T10:15:25;-0.60;94.10
75824;DHT22;64457;51.976;9.834;2022-12-18T10:18:01;-0.60;93.70
75824;DHT22;64457;51.976;9.834;2022-12-18T10:20:42;-0.40;93.80
75824;DHT22;64457;51.976;9.834;2022-12-18T10:23:16;-0.10;94.20
75824;DHT22;64457;51.976;9.834;2022-12-18T10:25:53;-0.30;93.70
75824;DHT22;64457;51.976;9.834;2022-12-18T10:28:23;-0.20;93.60
75824;DHT22;64457;51.976;9.834;2022-12-18T10:30:51;0.10;93.90
75824;DHT22;64457;51.976;9.834;2022-12-18T10:33:22;0.20;93.70
75824;DHT22;64457;51.976;9.834;2022-12-18T10:35:51;0.20;93.30
75824;DHT22;64457;51.976;9.834;2022-12-18T10:38:25;0.50;93.70
75824;DHT22;64457;51.976;9.834;2022-12-18T10:40:57;0.70;93.70
75824;DHT22;64457;51.976;9.834;2022-12-18T10:43:28;0.70;93.10
75824;DHT22;64457;51.976;9.834;2022-12-18T10:46:11;0.90;93.70
75824;DHT22;64457;51.976;9.834;2022-12-18T10:48:51;1.00;93.50
75824;DHT22;64457;51.976;9.834;2022-12-18T10:51:23;1.10;93.20
75824;DHT22;64457;51.976;9.834;2022-12-18T10:53:54;1.20;93.30
75824;DHT22;64457;51.976;9.834;2022-12-18T10:56:27;1.50;93.40
75824;DHT22;64457;51.976;9.834;2022-12-18T10:58:58;1.50;93.10
75824;DHT22;64457;51.976;9.834;2022-12-18T11:01:28;1.50;92.70
75824;DHT22;64457;51.976;9.834;2022-12-18T11:04:07;1.60;92.80
75824;DHT22;64457;51.976;9.834;2022-12-18T11:06:56;1.40;92.00
75824;DHT22;64457;51.976;9.834;2022-12-18T11:09:25;1.50;92.70
75824;DHT22;64457;51.976;9.834;2022-12-18T11:12:15;1.80;93.00
75824;DHT22;64457;51.976;9.834;2022-12-18T11:14:47;1.90;92.10
75824;DHT22;64457;51.976;9.834;2022-12-18T11:17:19;2.00;91.70
75824;DHT22;64457;51.976;9.834;2022-12-18T11:19:53;2.10;91.90
75824;DHT22;64457;51.976;9.834;2022-12-18T11:22:23;2.10;91.50
75824;DHT22;64457;51.976;9.834;2022-12-18T11:24:56;1.80;90.80
75824;DHT22;64457;51.976;9.834;2022-12-18T11:27:28;1.40;90.60
75824;DHT22;64457;51.976;9.834;2022-12-18T11:30:08;1.60;91.80
75824;DHT22;64457;51.976;9.834;2022-12-18T11:32:38;1.80;91.70
75824;DHT22;64457;51.976;9.834;2022-12-18T11:35:15;2.00;91.50
75824;DHT22;64457;51.976;9.834;2022-12-18T11:37:48;2.00;92.10
75824;DHT22;64457;51.976;9.834;2022-12-18T11:40:21;2.10;91.80
75824;DHT22;64457;51.976;9.834;2022-12-18T11:43:01;1.90;91.10
75824;DHT22;64457;51.976;9.834;2022-12-18T11:45:34;1.90;91.20
75824;DHT22;64457;51.976;9.834;2022-12-18T11:48:09;1.80;91.40
75824;DHT22;64457;51.976;9.834;2022-12-18T11:50:46;1.80;91.70
75824;DHT22;64457;51.976;9.834;2022-12-18T11:53:17;1.90;91.60
75824;DHT22;64457;51.976;9.834;2022-12-18T11:56:02;1.90;91.80
75824;DHT22;64457;51.976;9.834;2022-12-18T11:58:50;1.90;91.70
75824;DHT22;64457;51.976;9.834;2022-12-18T12:01:37;1.90;91.80
75824;DHT22;64457;51.976;9.834;2022-12-18T12:04:28;1.80;91.90
75824;DHT22;64457;51.976;9.834;2022-12-18T12:07:18;1.80;91.80
75824;DHT22;64457;51.976;9.834;2022-12-18T12:09:59;1.90;91.90
75824;DHT22;64457;51.976;9.834;2022-12-18T12:12:38;1.30;91.20
75824;DHT22;64457;51.976;9.834;2022-12-18T12:15:28;1.60;92.00
75824;DHT22;64457;51.976;9.834;2022-12-18T12:18:08;1.50;91.70
75824;DHT22;64457;51.976;9.834;2022-12-18T12:20:47;1.60;91.80
75824;DHT22;64457;51.976;9.834;2022-12-18T12:23:26;1.30;91.20
75824;DHT22;64457;51.976;9.834;2022-12-18T12:26:01;1.40;91.70
75824;DHT22;64457;51.976;9.834;2022-12-18T12:28:58;1.40;91.40
75824;DHT22;64457;51.976;9.834;2022-12-18T12:31:43;1.60;91.70
75824;DHT22;64457;51.976;9.834;2022-12-18T12:34:20;1.60;91.20
75824;DHT22;64457;51.976;9.834;2022-12-18T12:37:01;1.60;91.20
75824;DHT22;64457;51.976;9.834;2022-12-18T12:39:40;1.40;91.00
75824;DHT22;64457;51.976;9.834;2022-12-18T12:42:16;1.00;90.90
75824;DHT22;64457;51.976;9.834;2022-12-18T12:45:20;1.10;91.30
75824;DHT22;64457;51.976;9.834;2022-12-18T12:47:52;1.20;91.30
75824;DHT22;64457;51.976;9.834;2022-12-18T12:50:21;1.20;91.30
75824;DHT22;64457;51.976;9.834;2022-12-18T12:52:52;0.70;90.90
75824;DHT22;64457;51.976;9.834;2022-12-18T12:55:23;1.10;91.80
75824;DHT22;64457;51.976;9.834;2022-12-18T12:57:59;1.50;91.50
75824;DHT22;64457;51.976;9.834;2022-12-18T13:00:40;1.90;91.30
75824;DHT22;64457;51.976;9.834;2022-12-18T13:03:18;2.10;90.70
75824;DHT22;64457;51.976;9.834;2022-12-18T13:05:58;2.00;90.50
75824;DHT22;64457;51.976;9.834;2022-12-18T13:08:28;1.80;90.50
75824;DHT22;64457;51.976;9.834;2022-12-18T13:10:58;1.40;90.60
75824;DHT22;64457;51.976;9.834;2022-12-18T13:13:49;1.60;90.80
75824;DHT22;64457;51.976;9.834;2022-12-18T13:16:19;1.60;90.20
75824;DHT22;64457;51.976;9.834;2022-12-18T13:18:51;1.40;90.60
75824;DHT22;64457;51.976;9.834;2022-12-18T13:21:24;1.20;89.90
75824;DHT22;64457;51.976;9.834;2022-12-18T13:23:54;1.50;90.60
75824;DHT22;64457;51.976;9.834;2022-12-18T13:26:33;1.20;89.60
75824;DHT22;64457;51.976;9.834;2022-12-18T13:29:02;1.40;90.30
75824;DHT22;64457;51.976;9.834;2022-12-18T13:34:48;1.80;90.00
75824;DHT22;64457;51.976;9.834;2022-12-18T13:37:41;2.00;89.20
75824;DHT22;64457;51.976;9.834;2022-12-18T13:43:31;2.00;87.80
75824;DHT22;64457;51.976;9.834;2022-12-18T13:46:17;1.90;89.40
75824;DHT22;64457;51.976;9.834;2022-12-18T13:48:52;1.90;88.30
75824;DHT22;64457;51.976;9.834;2022-12-18T13:51:24;2.20;89.10
75824;DHT22;64457;51.976;9.834;2022-12-18T13:53:55;2.30;89.50
75824;DHT22;64457;51.976;9.834;2022-12-18T13:56:26;2.50;89.80
75824;DHT22;64457;51.976;9.834;2022-12-18T13:59:13;2.70;90.00
75824;DHT22;64457;51.976;9.834;2022-12-18T14:01:48;2.40;88.60
75824;DHT22;64457;51.976;9.834;2022-12-18T14:04:21;2.60;89.40
75824;DHT22;64457;51.976;9.834;2022-12-18T14:06:55;2.60;89.00
75824;DHT22;64457;51.976;9.834;2022-12-18T14:09:26;2.60;89.20
75824;DHT22;64457;51.976;9.834;2022-12-18T14:11:55;2.60;88.70
75824;DHT22;64457;51.976;9.834;2022-12-18T14:14:46;2.50;89.20
75824;DHT22;64457;51.976;9.834;2022-12-18T14:17:15;2.50;89.10
75824;DHT22;64457;51.976;9.834;2022-12-18T14:19:44;2.60;88.80
75824;DHT22;64457;51.976;9.834;2022-12-18T14:22:17;2.50;88.70
75824;DHT22;64457;51.976;9.834;2022-12-18T14:24:47;2.40;88.70
75824;DHT22;64457;51.976;9.834;2022-12-18T14:27:23;2.40;88.90
75824;DHT22;64457;51.976;9.834;2022-12-18T14:29:51;2.30;88.60
75824;DHT22;64457;51.976;9.834;2022-12-18T14:32:20;2.40;88.00
75824;DHT22;64457;51.976;9.834;2022-12-18T14:34:49;2.30;87.20
75824;DHT22;64457;51.976;9.834;2022-12-18T14:37:22;2.00;87.80
75824;DHT22;64457;51.976;9.834;2022-12-18T14:39:55;1.80;86.10
75824;DHT22;64457;51.976;9.834;2022-12-18T14:42:24;1.70;86.90
75824;DHT22;64457;51.976;9.834;2022-12-18T14:48:00;1.90;87.30
75824;DHT22;64457;51.976;9.834;2022-12-18T14:50:28;1.90;87.50
75824;DHT22;64457;51.976;9.834;2022-12-18T14:52:57;1.90;88.90
75824;DHT22;64457;51.976;9.834;2022-12-18T14:55:25;1.80;87.70
75824;DHT22;64457;51.976;9.834;2022-12-18T14:57:54;1.70;88.20
75824;DHT22;64457;51.976;9.834;2022-12-18T15:00:25;1.80;89.00
75824;DHT22;64457;51.976;9.834;2022-12-18T15:02:54;1.40;88.20
75824;DHT22;64457;51.976;9.834;2022-12-18T15:05:26;1.60;89.20
75824;DHT22;64457;51.976;9.834;2022-12-18T15:07:57;1.40;88.90
75824;DHT22;64457;51.976;9.834;2022-12-18T15:10:27;1.40;89.00
75824;DHT22;64457;51.976;9.834;2022-12-18T15:13:08;1.40;90.00
75824;DHT22;64457;51.976;9.834;2022-12-18T15:15:49;1.40;89.30
75824;DHT22;64457;51.976;9.834;2022-12-18T15:18:19;1.40;89.50
75824;DHT22;64457;51.976;9.834;2022-12-18T15:20:50;1.30;89.40
75824;DHT22;64457;51.976;9.834;2022-12-18T15:23:23;1.30;89.50
75824;DHT22;64457;51.976;9.834;2022-12-18T15:25:59;1.50;89.90
75824;DHT22;64457;51.976;9.834;2022-12-18T15:28:32;1.50;89.50
75824;DHT22;64457;51.976;9.834;2022-12-18T15:31:18;1.50;90.00
75824;DHT22;64457;51.976;9.834;2022-12-18T15:34:11;1.50;89.30
75824;DHT22;64457;51.976;9.834;2022-12-18T15:36:40;1.20;89.60
75824;DHT22;64457;51.976;9.834;2022-12-18T15:39:12;1.20;89.90
75824;DHT22;64457;51.976;9.834;2022-12-18T15:41:40;1.10;88.40
75824;DHT22;64457;51.976;9.834;2022-12-18T15:44:31;1.20;90.00
75824;DHT22;64457;51.976;9.834;2022-12-18T15:46:58;1.10;89.90
75824;DHT22;64457;51.976;9.834;2022-12-18T15:49:26;1.20;89.60
75824;DHT22;64457;51.976;9.834;2022-12-18T15:51:54;1.10;89.50
75824;DHT22;64457;51.976;9.834;2022-12-18T15:54:26;1.40;89.20
75824;DHT22;64457;51.976;9.834;2022-12-18T15:57:11;1.20;87.90
75824;DHT22;64457;51.976;9.834;2022-12-18T15:59:53;1.40;89.10
75824;DHT22;64457;51.976;9.834;2022-12-18T16:02:24;1.30;88.30
75824;DHT22;64457;51.976;9.834;2022-12-18T16:04:53;1.30;89.40
75824;DHT22;64457;51.976;9.834;2022-12-18T16:07:21;1.30;88.70
75824;DHT22;64457;51.976;9.834;2022-12-18T16:09:51;1.20;88.10
75824;DHT22;64457;51.976;9.834;2022-12-18T16:12:22;1.40;89.00
75824;DHT22;64457;51.976;9.834;2022-12-18T16:14:51;1.50;89.00